createdAt,value
2023-05-06T04:37:41.390Z,16.35
2023-05-06T04:42:49.887Z,16.27
2023-05-06T04:47:57.680Z,17.00
2023-05-06T04:53:02.929Z,16.23
2023-05-06T04:58:06.169Z,16.67
2023-05-06T05:03:09.757Z,16.38
2023-05-06T05:08:14.602Z,17.25
2023-05-06T05:13:17.872Z,15.77
2023-05-06T05:18:22.405Z,17.13
2023-05-06T05:23:30.475Z,15.82
2023-05-06T05:28:34.128Z,15.93
2023-05-06T05:33:39.820Z,16.52
2023-05-06T05:38:48.709Z,15.52
2023-05-06T05:43:51.967Z,15.68
2023-05-06T05:48:55.621Z,16.08
2023-05-06T05:54:01.544Z,15.70
2023-05-06T05:59:05.220Z,15.60
2023-05-06T06:04:08.937Z,16.15
2023-05-06T06:09:13.712Z,15.02
2023-05-06T06:14:17.807Z,15.23
2023-05-06T06:19:23.563Z,14.88
2023-05-06T06:24:29.009Z,14.85
2023-05-06T06:29:33.272Z,14.93
2023-05-06T06:34:36.547Z,14.30
2023-05-06T06:39:41.430Z,15.50
2023-05-06T06:44:44.689Z,15.25
2023-05-06T06:49:47.862Z,15.48
2023-05-06T06:54:52.372Z,14.88
2023-05-06T06:59:55.779Z,14.98
2023-05-06T07:04:59.225Z,14.27
2023-05-06T07:10:03.858Z,14.60
2023-05-06T07:15:09.188Z,13.88
2023-05-06T07:20:13.626Z,15.05
2023-05-06T07:25:18.340Z,14.77
2023-05-06T07:30:23.163Z,14.07
2023-05-06T07:35:26.768Z,14.43
2023-05-06T07:40:31.403Z,13.40
2023-05-06T07:45:34.608Z,14.25
2023-05-06T07:50:37.779Z,14.38
2023-05-06T07:55:42.380Z,13.13
2023-05-06T08:00:45.553Z,13.35
2023-05-06T08:05:50.551Z,14.25
2023-05-06T08:10:55.326Z,12.63
2023-05-06T08:15:58.897Z,12.65
2023-05-06T08:21:02.356Z,14.05
2023-05-06T08:31:44.969Z,13.02
2023-05-06T08:36:48.340Z,12.43
2023-05-06T08:41:54.064Z,11.98
2023-05-06T08:46:58.782Z,12.23
2023-05-06T08:52:06.309Z,9.88
2023-05-06T08:57:13.195Z,10.20
2023-05-06T09:02:18.051Z,9.68
2023-05-06T09:07:22.685Z,10.18
2023-05-06T09:12:26.347Z,9.20
2023-05-06T09:17:33.054Z,8.00
2023-05-06T09:22:39.065Z,6.68
2023-05-06T09:27:42.605Z,7.30
2023-05-06T09:32:49.797Z,7.72
2023-05-06T09:37:53.161Z,9.73
2023-05-06T09:42:57.103Z,9.25
2023-05-06T09:48:02.157Z,8.75
2023-05-06T09:53:06.733Z,9.88
2023-05-06T09:58:11.115Z,9.40
2023-05-06T10:03:17.720Z,9.07
2023-05-06T10:08:21.472Z,9.20
2023-05-06T10:13:26.365Z,7.28
2023-05-06T10:18:31.860Z,7.28
2023-05-06T10:23:44.338Z,5.57
2023-05-06T10:28:52.755Z,5.78
2023-05-06T10:34:01.938Z,5.40
2023-05-06T10:39:07.566Z,5.55
2023-05-06T10:44:12.054Z,5.40
2023-05-06T10:49:20.944Z,5.55
2023-05-06T10:54:27.808Z,5.00
2023-05-06T10:59:31.548Z,5.18
2023-05-06T11:04:37.560Z,5.43
2023-05-06T11:09:57.277Z,5.97
2023-05-06T11:15:20.953Z,6.40
2023-05-06T11:20:27.205Z,5.72
2023-05-06T11:25:45.243Z,6.53
2023-05-06T11:30:56.557Z,7.20
2023-05-06T11:36:01.748Z,6.38
2023-05-06T11:41:05.617Z,7.25
2023-05-06T11:46:09.005Z,6.60
2023-05-06T11:51:13.848Z,6.65
2023-05-06T11:56:17.097Z,6.90
2023-05-06T12:01:20.218Z,5.75
2023-05-06T12:06:35.198Z,4.53
2023-05-06T12:11:39.618Z,4.85
2023-05-06T12:16:43.156Z,5.72
2023-05-06T12:21:47.973Z,6.10
2023-05-06T12:26:51.938Z,6.32
2023-05-06T12:32:09.206Z,5.68
2023-05-06T12:37:25.829Z,5.30
2023-05-06T12:42:29.223Z,6.32
2023-05-06T12:47:32.434Z,6.60
2023-05-06T12:52:45.078Z,5.97
2023-05-06T12:57:49.252Z,6.80
2023-05-06T13:02:52.632Z,5.97
2023-05-06T13:07:57.259Z,5.80
2023-05-06T13:13:00.588Z,5.13
2023-05-06T13:18:04.255Z,5.20
2023-05-06T13:23:08.939Z,5.18
2023-05-06T13:28:12.160Z,4.00
2023-05-06T13:33:15.422Z,4.85
2023-05-06T13:38:20.497Z,4.80
2023-05-06T13:43:25.686Z,4.70
2023-05-06T13:48:29.360Z,4.65
2023-05-06T13:53:35.032Z,4.93
2023-05-06T13:58:38.377Z,4.70
2023-05-06T14:03:41.584Z,4.60
2023-05-06T14:08:47.041Z,4.82
2023-05-06T14:13:50.494Z,3.47
2023-05-06T14:18:53.681Z,3.90
2023-05-06T14:23:59.053Z,4.18
2023-05-06T14:29:02.589Z,3.55
2023-05-06T14:34:05.913Z,3.67
2023-05-06T14:39:10.637Z,3.40
2023-05-06T14:44:13.887Z,2.72
2023-05-06T14:49:17.080Z,2.60
2023-05-06T14:54:21.698Z,2.45
2023-05-06T14:59:24.827Z,3.30
2023-05-06T15:04:28.518Z,4.25
2023-05-06T15:09:33.365Z,4.65
2023-05-06T15:14:37.291Z,5.50
2023-05-06T15:19:40.595Z,5.43
2023-05-06T15:24:46.247Z,5.35
2023-05-06T15:29:49.520Z,6.07
2023-05-06T15:34:52.772Z,5.63
2023-05-06T15:39:57.686Z,6.18
2023-05-06T15:45:00.917Z,7.03
2023-05-06T15:50:14.068Z,7.35
2023-05-06T15:55:29.769Z,6.85
2023-05-06T16:00:32.933Z,6.43
2023-05-06T16:05:36.303Z,7.78
2023-05-06T16:10:41.196Z,5.93
2023-05-06T16:15:44.939Z,6.00
2023-05-06T16:20:48.429Z,6.03
2023-05-06T16:25:52.888Z,5.53
2023-05-06T16:30:56.259Z,5.65
2023-05-06T16:35:59.543Z,5.63
2023-05-06T16:41:04.340Z,5.18
2023-05-06T16:46:07.588Z,5.35
2023-05-06T16:51:12.332Z,4.97
2023-05-06T16:56:16.815Z,4.70
2023-05-06T17:01:20.208Z,4.50
2023-05-06T17:06:24.764Z,3.85
2023-05-06T17:11:29.610Z,4.10
2023-05-06T17:16:32.939Z,3.47
2023-05-06T17:21:36.342Z,3.63
2023-05-06T17:26:41.807Z,3.10
2023-05-06T17:31:45.279Z,3.35
2023-05-06T17:36:48.509Z,3.05
2023-05-06T17:41:53.355Z,2.70
2023-05-06T17:46:57.316Z,2.78
2023-05-06T17:52:01.700Z,2.75
2023-05-06T17:57:06.740Z,2.55
2023-05-06T18:02:13.957Z,2.60
2023-05-06T18:07:17.375Z,2.17
2023-05-06T18:12:22.238Z,2.72
2023-05-06T18:17:25.766Z,2.55
2023-05-06T18:22:29.164Z,2.60
2023-05-06T18:27:34.033Z,2.50
2023-05-06T18:32:37.990Z,3.38
2023-05-06T18:37:41.485Z,3.25
2023-05-06T18:42:47.417Z,3.58
2023-05-06T18:47:50.764Z,3.63
2023-05-06T18:52:56.229Z,3.33
2023-05-06T18:58:05.590Z,4.43
2023-05-06T19:03:09.506Z,4.47
2023-05-06T19:08:13.755Z,5.20
2023-05-06T19:13:18.743Z,6.82
2023-05-06T19:18:22.108Z,7.13
2023-05-06T19:23:25.470Z,7.53
2023-05-06T19:28:30.266Z,7.38
2023-05-06T19:33:33.546Z,7.35
2023-05-06T19:38:36.860Z,7.50
2023-05-06T19:43:45.341Z,8.82
2023-05-06T19:48:48.642Z,8.82
2023-05-06T19:53:51.933Z,9.57
2023-05-06T19:58:56.775Z,9.73
2023-05-06T20:04:00.307Z,10.50
2023-05-06T20:09:04.196Z,10.98
2023-05-06T20:14:09.030Z,10.32
2023-05-06T20:19:12.575Z,10.35
2023-05-06T20:24:16.314Z,10.18
2023-05-06T20:29:21.328Z,10.25
2023-05-06T20:34:24.700Z,10.18
2023-05-06T20:39:28.209Z,9.90
2023-05-06T20:44:33.215Z,11.07
2023-05-06T20:49:36.769Z,11.95
2023-05-06T20:54:40.356Z,14.80
2023-05-06T20:59:46.041Z,17.58
2023-05-06T21:04:49.455Z,17.55
2023-05-06T21:09:52.835Z,17.20
2023-05-06T21:14:59.188Z,19.02
2023-05-06T21:20:06.933Z,18.40
2023-05-06T21:25:13.425Z,18.55
2023-05-06T21:30:19.019Z,18.23
2023-05-06T21:35:24.961Z,17.77
2023-05-06T21:40:28.283Z,17.23
2023-05-06T21:45:32.975Z,17.77
2023-05-06T21:50:37.950Z,18.95
2023-05-06T21:55:41.651Z,19.10
2023-05-06T22:00:46.482Z,18.45
2023-05-06T22:05:50.018Z,18.95
2023-05-06T22:10:53.656Z,18.25
2023-05-06T22:15:58.389Z,17.55
2023-05-06T22:21:01.840Z,16.70
2023-05-06T22:26:05.293Z,17.33
2023-05-06T22:31:10.180Z,17.63
2023-05-06T22:36:13.519Z,18.23
2023-05-06T22:41:18.305Z,17.85
2023-05-06T22:46:23.208Z,18.30
2023-05-06T22:51:26.497Z,18.23
2023-05-06T22:56:29.862Z,17.50
2023-05-06T23:01:35.104Z,16.63
2023-05-06T23:06:38.436Z,17.70
2023-05-06T23:11:41.908Z,17.70
2023-05-06T23:16:46.754Z,18.02
2023-05-06T23:21:50.053Z,17.80
2023-05-06T23:26:53.387Z,18.10
2023-05-06T23:31:58.034Z,18.27
2023-05-06T23:37:01.436Z,16.33
2023-05-06T23:42:05.042Z,18.75
2023-05-06T23:47:09.760Z,18.08
2023-05-06T23:52:13.709Z,17.50
2023-05-06T23:57:16.999Z,15.98
